METAR Data
IDs: Format: Raw Decoded Include TAF

Data at: 1234 UTC 21 Nov 2018

KT82 211215Z AUTO 00000KT 10SM CLR 00/M01 A3029 RMK AO2 T00011007
KT82 211155Z AUTO 18004KT 10SM CLR 00/M01 A3029 RMK AO2 T00001011 10022 21006
KT82 211135Z AUTO 00000KT 10SM CLR 00/M01 A3028 RMK AO2 T00001009
KT82 211115Z AUTO 00000KT 10SM CLR 00/M01 A3029 RMK AO2 T00001010
KT82 211055Z AUTO 00000KT 10SM CLR 00/M01 A3030 RMK AO2 T00001009
KT82 211035Z AUTO 00000KT 10SM CLR 00/M01 A3030 RMK AO2 T00001008
KT82 211015Z AUTO 00000KT 10SM CLR 00/00 A3030 RMK AO2 T00041005
KT82 210955Z AUTO 00000KT 10SM CLR 01/00 A3030 RMK AO2 T00051003
KT82 210935Z AUTO 00000KT 10SM CLR 00/M01 A3030 RMK AO2 T00001008
KT82 210915Z AUTO 00000KT 10SM CLR 01/00 A3030 RMK AO2 T00061002
KT82 210855Z AUTO 00000KT 10SM CLR 01/00 A3030 RMK AO2 T00071002
KT82 210835Z AUTO 00000KT 10SM CLR 00/M01 A3030 RMK AO2 T00031007
KT82 210815Z AUTO 00000KT 10SM CLR 01/00 A3030 RMK AO2 T00091001
KT82 210755Z AUTO 00000KT 10SM CLR 01/00 A3031 RMK AO2 T00071003
KT82 210735Z AUTO 00000KT 10SM CLR 02/00 A3031 RMK AO2 T00180000
KT82 210715Z AUTO 00000KT 10SM CLR 02/00 A3031 RMK AO2 T00180000
KT82 210655Z AUTO 00000KT 10SM CLR 02/00 A3031 RMK AO2 T00180000
KT82 210635Z AUTO 00000KT 10SM CLR 02/00 A3032 RMK AO2 T00200000
KT82 210615Z AUTO 00000KT 10SM CLR 02/00 A3032 RMK AO2 T00200000
KT82 210555Z AUTO 00000KT 10SM CLR 02/00 A3033 RMK AO2 T00220001 10105 20019 401510005
KT82 210535Z AUTO 00000KT 10SM CLR 02/00 A3033 RMK AO2 T00220001
KT82 210515Z AUTO 00000KT 10SM CLR 03/00 A3033 RMK AO2 T00250003
KT82 210455Z AUTO 00000KT 10SM CLR 02/00 A3033 RMK AO2 T00230004
KT82 210435Z AUTO 00000KT 10SM CLR 02/00 A3033 RMK AO2 T00240000
KT82 210415Z AUTO 00000KT 10SM CLR 03/01 A3033 RMK AO2 T00330005
KT82 210355Z AUTO 00000KT 10SM CLR 03/01 A3033 RMK AO2 T00310007
KT82 210335Z AUTO 00000KT 10SM CLR 03/01 A3033 RMK AO2 T00320006
KT82 210315Z AUTO 00000KT 10SM CLR 04/01 A3032 RMK AO2 T00370011
KT82 210255Z AUTO 00000KT 10SM CLR 05/01 A3032 RMK AO2 T00450010
KT82 210235Z AUTO 00000KT 10SM CLR 05/01 A3032 RMK AO2 T00530013
KT82 210215Z AUTO 00000KT 10SM CLR 06/01 A3031 RMK AO2 T00550013
KT82 210155Z AUTO 00000KT 10SM CLR 06/01 A3031 RMK AO2 T00600009
KT82 210135Z AUTO 00000KT 10SM CLR 06/01 A3030 RMK AO2 T00600010
KT82 210115Z AUTO 00000KT 10SM CLR 06/01 A3030 RMK AO2 T00620009
KT82 210055Z AUTO 04003KT 10SM CLR 09/01 A3029 RMK AO2 T00860008
KT82 210035Z AUTO 05004KT 10SM CLR 09/01 A3029 RMK AO2 T00910010
KT82 210015Z AUTO 05003KT 10SM CLR 10/01 A3029 RMK AO2 T01010010
KT82 202355Z AUTO 06003KT 10SM CLR 10/01 A3028 RMK AO2 T01010010 10151 20101
KT82 202335Z AUTO 07003KT 10SM CLR 12/00 A3028 RMK AO2 T01170001
KT82 202315Z AUTO 05004KT 10SM CLR 13/00 A3028 RMK AO2 T01280001
KT82 202255Z AUTO 04006KT 10SM CLR 14/00 A3028 RMK AO2 T01360000
KT82 202235Z AUTO 06006KT 10SM CLR 14/00 A3027 RMK AO2 T01411005
KT82 202215Z AUTO 05007KT 10SM CLR 14/M01 A3027 RMK AO2 T01441008
KT82 202155Z AUTO 06007KT 10SM CLR 15/M01 A3027 RMK AO2 T01481007
KT82 202135Z AUTO 05008KT 10SM CLR 15/M01 A3027 RMK AO2 T01491006
KT82 202115Z AUTO 07008KT 10SM CLR 15/M01 A3027 RMK AO2 T01471006
KT82 202055Z AUTO 07004KT 10SM CLR 15/00 A3028 RMK AO2 T01451004
KT82 202035Z AUTO 04006KT 10SM CLR 14/M01 A3028 RMK AO2 T01441008
KT82 202015Z AUTO 05006KT 10SM CLR 15/M01 A3029 RMK AO2 T01451008
KT82 201955Z AUTO 09004KT 10SM CLR 14/00 A3030 RMK AO2 T01441003
KT82 201935Z AUTO 35004KT 10SM CLR 14/00 A3031 RMK AO2 T01440002
KT82 201915Z AUTO 34004KT 10SM CLR 14/00 A3031 RMK AO2 T01370002
KT82 201855Z AUTO 05006KT 10SM CLR 13/00 A3033 RMK AO2 T01290003
KT82 201835Z AUTO 03003KT 10SM CLR 13/01 A3033 RMK AO2 T01290009
KT82 201815Z AUTO 01007KT 10SM CLR 13/01 A3034 RMK AO2 T01280011
KT82 201755Z AUTO 36005KT 10SM CLR 12/01 A3036 RMK AO2 T01210013 10121 20006
KT82 201735Z AUTO 06005KT 10SM CLR 12/01 A3037 RMK AO2 T01190012
KT82 201715Z AUTO 05003KT 10SM CLR 12/01 A3038 RMK AO2 T01160014
KT82 201655Z AUTO 05006KT 10SM CLR 11/01 A3039 RMK AO2 T01140012
KT82 201635Z AUTO 05008KT 10SM CLR 11/01 A3038 RMK AO2 T01070012
KT82 201615Z AUTO 07006KT 050V110 10SM CLR 10/01 A3039 RMK AO2 T01010013
KT82 201555Z AUTO 07008G15KT 10SM CLR 10/01 A3039 RMK AO2 T00990009
KT82 201535Z AUTO 04008G14KT 10SM CLR 09/02 A3038 RMK AO2 T00920015
KT82 201515Z AUTO 06006KT 10SM CLR 09/02 A3038 RMK AO2 T00860022
KT82 201455Z AUTO 00000KT 10SM CLR 07/03 A3037 RMK AO2 T00660032
KT82 201435Z AUTO 35003KT 10SM CLR 05/03 A3036 RMK AO2 T00500032
KT82 201415Z AUTO 00000KT 10SM CLR 03/02 A3036 RMK AO2 T00330022
KT82 201355Z AUTO 00000KT 10SM CLR 02/01 A3035 RMK AO2 T00170006
KT82 201335Z AUTO 00000KT 10SM CLR 02/01 A3034 RMK AO2 T00150005
KT82 201315Z AUTO 00000KT 10SM CLR 01/00 A3033 RMK AO2 T00100001
KT82 201255Z AUTO 32003KT 10SM CLR 01/00 A3032 RMK AO2 T00070000
KT82 201235Z AUTO 29003KT 10SM CLR 01/00 A3031 RMK AO2 T00100000
KT82 201215Z AUTO 00000KT 10SM CLR 01/00 A3030 RMK AO2 T00130003
KT82 201155Z AUTO 00000KT 10SM CLR 02/01 A3030 RMK AO2 T00160008 10097 20005
KT82 201135Z AUTO 00000KT 10SM CLR 02/01 A3030 RMK AO2 T00210011
KT82 201115Z AUTO 00000KT 10SM CLR 02/01 A3029 RMK AO2 T00160007
KT82 201055Z AUTO 32003KT 10SM CLR 02/01 A3028 RMK AO2 T00200010
KT82 201035Z AUTO 00000KT 10SM CLR 03/02 A3028 RMK AO2 T00290015
KT82 201015Z AUTO 00000KT 10SM CLR 03/02 A3028 RMK AO2 T00270015
KT82 200955Z AUTO 00000KT 10SM CLR 02/01 A3028 RMK AO2 T00230011
KT82 200935Z AUTO 00000KT 10SM CLR 03/01 A3028 RMK AO2 T00260011
KT82 200915Z AUTO 32003KT 10SM CLR 03/02 A3028 RMK AO2 T00300016
KT82 200855Z AUTO 32004KT 10SM CLR 03/02 A3027 RMK AO2 T00320018
KT82 200835Z AUTO 00000KT 10SM CLR 04/02 A3026 RMK AO2 T00370019
KT82 200815Z AUTO 00000KT 10SM CLR 03/01 A3026 RMK AO2 T00310007
KT82 200755Z AUTO 00000KT 10SM CLR 05/03 A3027 RMK AO2 T00500027
KT82 200735Z AUTO 00000KT 10SM CLR 05/03 A3027 RMK AO2 T00540027
KT82 200715Z AUTO 02003KT 10SM CLR 06/03 A3027 RMK AO2 T00570026
KT82 200655Z AUTO 03003KT 10SM CLR 07/03 A3027 RMK AO2 T00660030
KT82 200635Z AUTO 00000KT 10SM CLR 08/03 A3026 RMK AO2 T00750031
KT82 200610Z AUTO 00000KT 10SM BKN022 09/04 A3026 RMK AO2 T00920043
KT82 200555Z AUTO 00000KT 10SM OVC022 10/05 A3025 RMK AO2 T00970046 10098 20095 401060062
KT82 200535Z AUTO 00000KT 10SM OVC024 10/04 A3026 RMK AO2 T00970044
KT82 200515Z AUTO 00000KT 10SM OVC026 10/04 A3026 RMK AO2 T00960042
KT82 200455Z AUTO 00000KT 10SM OVC028 10/04 A3025 RMK AO2 T00950043
KT82 200435Z AUTO 00000KT 10SM OVC028 10/04 A3024 RMK AO2 T00950041
KT82 200415Z AUTO 00000KT 10SM OVC028 10/04 A3024 RMK AO2 T00950041
KT82 200355Z AUTO 02003KT 10SM OVC026 10/04 A3024 RMK AO2 T00960040
KT82 200335Z AUTO 00000KT 10SM OVC026 10/04 A3023 RMK AO2 T00970037
KT82 200315Z AUTO 00000KT 10SM OVC026 10/04 A3023 RMK AO2 T00970037
KT82 200255Z AUTO 00000KT 10SM OVC026 10/04 A3022 RMK AO2 T00960037
KT82 200235Z AUTO 01003KT 10SM OVC026 10/04 A3022 RMK AO2 T00970035
KT82 200215Z AUTO 00000KT 10SM OVC028 10/04 A3021 RMK AO2 T00970036
KT82 200155Z AUTO 02003KT 10SM OVC028 10/04 A3020 RMK AO2 T00970036
KT82 200135Z AUTO 00000KT 10SM OVC028 10/04 A3021 RMK AO2 T00970035
KT82 200115Z AUTO 01004KT 10SM OVC028 10/03 A3019 RMK AO2 T00970033
KT82 200055Z AUTO 01003KT 10SM OVC028 10/04 A3018 RMK AO2 T00980035
KT82 200035Z AUTO 36004KT 10SM OVC030 10/04 A3018 RMK AO2 T00970035